Time;durP1;ratioP1;P1;durP2;ratioP2;P2;SDS_P1;SDS_P2;PMS_P1;PMS_P2;Temp;Humidity;BMP_temperature;BMP_pressure;BME280_temperature;BME280_humidity;BME280_pressure;Samples;Min_cycle;Max_cycle;Signal;HPM_P1;HPM_P2
2022/12/09 00:01:45;;;;;;;28.47;14.75;;;;;;;5.56;98.49;100444.54;1730400;81;21216;-75
2022/12/09 00:04:50;;;;;;;31.60;17.15;;;;;;;5.85;97.98;100439.63;1730304;81;21180;-79
2022/12/09 00:07:56;;;;;;;37.80;22.27;;;;;;;5.82;97.81;100432.61;1728978;81;21145;-80
2022/12/09 00:11:02;;;;;;;40.75;23.30;;;;;;;5.92;96.57;100431.78;1735343;81;21690;-80
2022/12/09 00:14:08;;;;;;;56.42;31.35;;;;;;;5.92;96.62;100431.28;1735298;81;21551;-76
2022/12/09 00:17:14;;;;;;;61.80;34.45;;;;;;;5.90;97.09;100427.84;1741049;81;21184;-76
2022/12/09 00:20:21;;;;;;;66.00;37.10;;;;;;;5.94;96.95;100425.23;1741341;81;21180;-76
2022/12/09 00:23:26;;;;;;;70.20;35.98;;;;;;;5.87;96.89;100422.17;1740050;81;21191;-79
2022/12/09 00:26:32;;;;;;;68.87;37.60;;;;;;;5.85;96.87;100426.91;1743183;80;21195;-76
2022/12/09 00:29:37;;;;;;;59.55;32.58;;;;;;;5.94;96.29;100429.80;1746898;80;21174;-76
2022/12/09 00:32:42;;;;;;;58.90;31.45;;;;;;;5.95;96.16;100431.01;1744500;81;21152;-76
2022/12/09 00:35:48;;;;;;;60.28;30.90;;;;;;;5.87;96.67;100427.61;1745062;81;22283;-75
2022/12/09 00:38:53;;;;;;;50.95;31.68;;;;;;;5.91;95.92;100429.54;1739293;81;21181;-80
2022/12/09 00:41:59;;;;;;;51.15;27.75;;;;;;;5.78;96.13;100424.89;1739290;80;21176;-79
2022/12/09 00:45:06;;;;;;;39.20;22.60;;;;;;;5.84;96.06;100429.27;1742184;80;21148;-80
2022/12/09 00:48:12;;;;;;;33.20;20.23;;;;;;;5.85;95.66;100425.55;1732154;81;23761;-75
2022/12/09 00:51:22;;;;;;;36.35;20.77;;;;;;;5.70;95.58;100422.91;1738297;81;21795;-79
2022/12/09 00:54:27;;;;;;;40.05;23.35;;;;;;;5.69;95.59;100414.39;1741079;80;21737;-80
2022/12/09 00:57:32;;;;;;;38.58;23.12;;;;;;;5.58;96.48;100419.96;1745337;81;21185;-79
2022/12/09 01:00:38;;;;;;;37.85;23.02;;;;;;;5.45;97.04;100413.95;1742090;81;21175;-75
2022/12/09 01:03:43;;;;;;;34.18;20.43;;;;;;;5.42;97.42;100412.39;1739485;81;21687;-81
2022/12/09 01:06:50;;;;;;;26.73;17.45;;;;;;;5.43;97.97;100410.53;1750436;81;21740;-76
2022/12/09 01:09:57;;;;;;;25.02;14.55;;;;;;;5.47;98.62;100411.47;1739054;81;21171;-76
2022/12/09 01:13:04;;;;;;;18.60;12.40;;;;;;;5.40;99.40;100402.16;1741512;81;21186;-75
2022/12/09 01:16:10;;;;;;;18.48;11.93;;;;;;;5.61;99.14;100399.34;1742510;81;21169;-75
2022/12/09 01:19:13;;;;;;;22.13;13.10;;;;;;;5.67;98.91;100396.05;1744509;81;21166;-75
2022/12/09 01:22:18;;;;;;;15.90;11.07;;;;;;;5.49;99.40;100399.11;1739889;81;21156;-75
2022/12/09 01:25:24;;;;;;;20.32;12.00;;;;;;;3.44;100.00;100399.59;1743922;80;21192;-80
2022/12/09 01:28:31;;;;;;;17.98;12.15;;;;;;;4.68;100.00;100396.98;1738686;81;21581;-75
2022/12/09 01:31:39;;;;;;;24.63;14.80;;;;;;;4.82;100.00;100391.19;1746588;81;21701;-76
2022/12/09 01:34:46;;;;;;;24.60;14.28;;;;;;;4.53;100.00;100391.08;1739273;81;21215;-78
2022/12/09 01:37:51;;;;;;;31.12;17.07;;;;;;;4.84;100.00;100385.12;1744111;81;21188;-76
2022/12/09 01:40:56;;;;;;;30.90;17.70;;;;;;;4.79;100.00;100385.53;1738101;81;21666;-76
2022/12/09 01:44:30;;;;;;;34.00;18.85;;;;;;;5.06;100.00;100384.05;1739723;82;21701;-77
2022/12/09 01:47:36;;;;;;;47.20;22.70;;;;;;;4.36;100.00;100384.42;1742714;81;21151;-77
2022/12/09 01:50:42;;;;;;;45.98;21.27;;;;;;;4.93;100.00;100382.94;1743353;81;21804;-77
2022/12/09 01:53:52;;;;;;;46.25;22.55;;;;;;;5.06;100.00;100389.47;1742866;81;21172;-77
2022/12/09 01:56:57;;;;;;;52.58;25.57;;;;;;;5.04;100.00;100380.13;1738557;81;21208;-77
2022/12/09 02:00:02;;;;;;;50.50;25.82;;;;;;;4.94;100.00;100385.14;1740811;81;21176;-78
2022/12/09 02:03:10;;;;;;;61.08;30.23;;;;;;;5.10;100.00;100389.56;1742410;81;21232;-77
2022/12/09 02:06:16;;;;;;;71.35;32.65;;;;;;;5.25;100.00;100389.51;1720737;82;21196;-78
2022/12/09 02:09:22;;;;;;;67.82;31.82;;;;;;;5.39;100.00;100384.17;1776009;80;21158;-77
2022/12/09 02:12:32;;;;;;;76.25;35.43;;;;;;;5.46;100.00;100379.91;1731328;81;21188;-77
2022/12/09 02:15:45;;;;;;;72.22;35.40;;;;;;;5.55;100.00;100380.42;1734841;82;21204;-77
2022/12/09 02:18:56;;;;;;;79.30;37.90;;;;;;;4.36;100.00;100378.50;1737949;81;21772;-76
2022/12/09 02:22:04;;;;;;;89.10;39.53;;;;;;;5.11;100.00;100379.92;1734863;82;21192;-78
2022/12/09 02:25:33;;;;;;;85.50;37.95;;;;;;;5.39;100.00;100372.83;1732209;81;21202;-78
2022/12/09 02:29:19;;;;;;;75.90;34.80;;;;;;;5.29;100.00;100370.61;1730810;81;21198;-78
2022/12/09 02:32:49;;;;;;;84.45;38.17;;;;;;;5.42;100.00;100372.20;1762246;81;21131;-78
2022/12/09 02:36:09;;;;;;;73.87;34.75;;;;;;;5.37;100.00;100382.97;1739768;82;21712;-77
2022/12/09 02:39:16;;;;;;;66.42;30.48;;;;;;;5.33;100.00;100374.75;1729736;82;21202;-76
2022/12/09 02:42:24;;;;;;;59.65;29.65;;;;;;;5.57;100.00;100385.69;1735145;81;21733;-78
2022/12/09 02:45:31;;;;;;;68.72;27.93;;;;;;;5.64;100.00;100385.47;1729731;81;21182;-78
2022/12/09 02:48:44;;;;;;;64.22;27.52;;;;;;;3.72;100.00;100386.80;1766077;81;21245;-76
2022/12/09 02:51:51;;;;;;;51.02;24.87;;;;;;;4.13;100.00;100385.08;1717641;81;27223;-77
2022/12/09 02:54:51;;;;;;;46.15;23.83;;;;;;;3.64;100.00;100387.09;1735119;81;21174;-78
2022/12/09 02:57:58;;;;;;;49.18;24.95;;;;;;;3.98;100.00;100386.41;1721935;82;21156;-76
2022/12/09 03:01:04;;;;;;;50.83;24.70;;;;;;;4.60;100.00;100386.81;1725346;82;21776;-78
2022/12/09 03:04:09;;;;;;;39.67;21.40;;;;;;;4.75;100.00;100380.05;1712345;82;21170;-75
2022/12/09 03:07:28;;;;;;;34.18;19.50;;;;;;;4.75;100.00;100381.41;1733528;82;21226;-75
2022/12/09 03:10:59;;;;;;;38.90;18.80;;;;;;;4.87;100.00;100375.37;1731641;82;21174;-76
2022/12/09 03:14:25;;;;;;;37.23;19.27;;;;;;;4.99;100.00;100368.00;1731661;81;21151;-76
2022/12/09 03:17:42;;;;;;;36.10;17.65;;;;;;;4.96;100.00;100366.91;1725472;82;21156;-76
2022/12/09 03:20:48;;;;;;;32.83;19.00;;;;;;;5.09;100.00;100374.30;1728013;82;21155;-76
2022/12/09 03:23:54;;;;;;;34.50;18.60;;;;;;;5.00;100.00;100367.84;1729028;82;21155;-76
2022/12/09 03:27:00;;;;;;;36.53;18.98;;;;;;;4.94;100.00;100366.17;1745336;80;21156;-77
2022/12/09 03:30:06;;;;;;;40.25;21.42;;;;;;;5.02;100.00;100366.34;1767640;80;21168;-77
2022/12/09 03:33:13;;;;;;;37.78;20.12;;;;;;;4.98;100.00;100361.69;1739361;80;21160;-77
2022/12/09 03:36:19;;;;;;;38.02;20.68;;;;;;;5.09;100.00;100372.44;1737736;80;21494;-78
2022/12/09 03:39:26;;;;;;;35.98;20.37;;;;;;;5.14;100.00;100366.59;1763573;80;21157;-77
2022/12/09 03:42:39;;;;;;;36.42;19.70;;;;;;;5.12;100.00;100369.92;1776782;80;21123;-78
2022/12/09 03:45:47;;;;;;;31.30;17.12;;;;;;;5.18;100.00;100369.39;1777233;80;21147;-77
2022/12/09 03:48:47;;;;;;;27.60;16.75;;;;;;;5.12;100.00;100366.71;1760561;80;21192;-77
2022/12/09 03:51:48;;;;;;;26.20;15.53;;;;;;;5.37;100.00;100380.26;1776367;80;31180;-78
2022/12/09 03:54:54;;;;;;;30.30;16.42;;;;;;;5.45;100.00;100377.32;1777738;79;21166;-77
2022/12/09 03:57:54;;;;;;;28.25;15.38;;;;;;;5.61;100.00;100375.77;1777560;80;21166;-77
2022/12/09 04:01:01;;;;;;;27.00;15.65;;;;;;;5.76;100.00;100377.55;1775150;80;21134;-77
2022/12/09 04:04:07;;;;;;;30.68;13.90;;;;;;;5.68;100.00;100369.26;1776222;79;21158;-78
2022/12/09 04:07:12;;;;;;;30.30;15.70;;;;;;;5.56;100.00;100372.63;1747386;82;21132;-78
2022/12/09 04:10:17;;;;;;;27.27;14.93;;;;;;;5.56;100.00;100377.20;1767349;80;21733;-77
2022/12/09 04:13:23;;;;;;;26.77;15.60;;;;;;;5.55;100.00;100372.75;1778386;80;21167;-78
2022/12/09 04:16:29;;;;;;;28.67;16.32;;;;;;;5.39;100.00;100375.53;1738497;81;21172;-77
2022/12/09 04:19:34;;;;;;;34.38;17.25;;;;;;;5.27;100.00;100369.91;1739793;80;21176;-78
2022/12/09 04:22:41;;;;;;;35.95;18.62;;;;;;;5.30;100.00;100383.66;1777760;80;21151;-76
2022/12/09 04:25:46;;;;;;;27.42;16.10;;;;;;;4.96;100.00;100375.05;1740421;81;21168;-80
2022/12/09 04:28:51;;;;;;;24.90;15.13;;;;;;;5.44;100.00;100379.19;1777413;79;21726;-78
2022/12/09 04:31:56;;;;;;;24.40;15.00;;;;;;;5.45;100.00;100380.89;1752412;81;21124;-77
2022/12/09 04:35:02;;;;;;;32.30;17.48;;;;;;;5.50;100.00;100374.53;1758594;81;21214;-75
2022/12/09 04:38:10;;;;;;;29.15;16.50;;;;;;;5.35;100.00;100375.45;1759932;81;21133;-77
2022/12/09 04:41:18;;;;;;;30.80;16.60;;;;;;;5.39;100.00;100378.75;1759118;81;21214;-76
2022/12/09 04:44:23;;;;;;;30.27;15.55;;;;;;;5.31;100.00;100367.74;1757890;81;21178;-75
2022/12/09 04:47:29;;;;;;;26.48;14.60;;;;;;;5.32;100.00;100373.55;1758157;81;21191;-76
2022/12/09 04:50:35;;;;;;;29.50;16.10;;;;;;;5.48;100.00;100371.12;1758211;81;21711;-77
2022/12/09 04:53:40;;;;;;;29.92;16.35;;;;;;;5.68;100.00;100376.55;1759410;81;21186;-76
2022/12/09 04:56:46;;;;;;;28.17;17.30;;;;;;;5.78;100.00;100366.53;1759056;81;21167;-77
2022/12/09 04:59:52;;;;;;;28.65;16.80;;;;;;;5.88;100.00;100364.19;1758997;81;21241;-76
2022/12/09 05:02:57;;;;;;;25.97;15.70;;;;;;;6.02;100.00;100368.82;1759052;81;21187;-77
2022/12/09 05:06:05;;;;;;;25.37;15.98;;;;;;;5.72;100.00;100372.55;1759215;81;21211;-77
2022/12/09 05:09:10;;;;;;;27.48;16.55;;;;;;;5.62;100.00;100368.48;1759371;81;21203;-77
2022/12/09 05:12:16;;;;;;;26.50;15.55;;;;;;;5.57;100.00;100368.91;1759152;81;21173;-79
2022/12/09 05:15:21;;;;;;;24.12;13.83;;;;;;;5.67;100.00;100363.48;1759829;81;21179;-77
2022/12/09 05:18:28;;;;;;;19.50;11.93;;;;;;;5.56;100.00;100366.35;1759953;81;21673;-79
2022/12/09 05:21:34;;;;;;;20.23;11.80;;;;;;;5.73;100.00;100362.89;1760077;81;21144;-78
2022/12/09 05:24:42;;;;;;;22.50;12.53;;;;;;;5.56;100.00;100362.28;1759142;81;21159;-78
2022/12/09 05:27:47;;;;;;;21.57;11.97;;;;;;;5.64;100.00;100365.11;1761383;81;21203;-78
2022/12/09 05:30:53;;;;;;;21.15;10.60;;;;;;;5.98;100.00;100367.42;1764594;81;21143;-77
2022/12/09 05:34:00;;;;;;;18.10;10.68;;;;;;;5.73;100.00;100375.61;1762640;81;21179;-77
2022/12/09 05:37:06;;;;;;;18.12;10.28;;;;;;;5.76;100.00;100376.70;1764449;81;21194;-78
2022/12/09 05:40:07;;;;;;;17.75;9.75;;;;;;;5.88;100.00;100375.05;1764428;81;21179;-78
2022/12/09 05:43:13;;;;;;;19.62;10.95;;;;;;;6.03;100.00;100381.42;1764458;81;21195;-78
2022/12/09 05:46:19;;;;;;;22.70;10.48;;;;;;;5.79;100.00;100376.42;1764385;81;21210;-78
2022/12/09 05:49:26;;;;;;;22.20;12.60;;;;;;;5.82;100.00;100370.17;1764431;81;21181;-78
2022/12/09 05:52:32;;;;;;;28.02;15.28;;;;;;;6.03;100.00;100371.41;1764775;81;21131;-77
2022/12/09 05:55:37;;;;;;;27.37;14.00;;;;;;;5.95;100.00;100376.70;1764511;81;21174;-78
2022/12/09 05:58:44;;;;;;;25.45;14.98;;;;;;;5.95;100.00;100376.70;1764528;81;21147;-79
2022/12/09 06:01:49;;;;;;;27.93;15.88;;;;;;;5.97;100.00;100367.05;1764574;81;21186;-78
2022/12/09 06:04:54;;;;;;;27.17;15.45;;;;;;;5.99;100.00;100366.42;1764520;81;21175;-77
2022/12/09 06:07:48;;;;;;;26.82;15.35;;;;;;;6.00;100.00;100362.69;1763390;81;21686;-78
2022/12/09 06:10:56;;;;;;;27.45;16.25;;;;;;;5.99;100.00;100364.55;1764698;81;21111;-77
2022/12/09 06:14:01;;;;;;;26.17;16.15;;;;;;;6.09;100.00;100360.47;1764667;81;21724;-78
2022/12/09 06:17:07;;;;;;;27.42;16.57;;;;;;;6.22;100.00;100369.66;1751600;81;21147;-78
2022/12/09 06:20:14;;;;;;;26.82;16.87;;;;;;;6.06;100.00;100378.39;1754347;81;21179;-79
2022/12/09 06:23:20;;;;;;;24.27;14.45;;;;;;;6.14;100.00;100375.81;1733192;81;21147;-79
2022/12/09 06:26:32;;;;;;;27.13;15.58;;;;;;;6.17;100.00;100374.68;1757097;80;21149;-78
2022/12/09 06:29:39;;;;;;;25.10;15.93;;;;;;;6.22;100.00;100373.23;1726811;81;21738;-78
2022/12/09 06:32:44;;;;;;;25.15;15.75;;;;;;;6.34;100.00;100369.82;1735566;82;21429;-77
2022/12/09 06:35:50;;;;;;;22.95;14.15;;;;;;;6.19;100.00;100374.88;1734398;82;21160;-77
2022/12/09 06:38:56;;;;;;;26.73;15.60;;;;;;;5.95;100.00;100378.06;1727627;82;21235;-78
2022/12/09 06:42:04;;;;;;;24.57;15.48;;;;;;;5.97;100.00;100381.98;1750878;81;21179;-80
2022/12/09 06:45:10;;;;;;;25.75;14.00;;;;;;;6.20;100.00;100388.80;1721909;83;21208;-79
2022/12/09 06:48:09;;;;;;;24.10;15.70;;;;;;;6.34;100.00;100388.84;1727198;81;21145;-80
2022/12/09 06:51:11;;;;;;;29.87;16.27;;;;;;;6.28;100.00;100382.64;1749167;81;21183;-80
2022/12/09 06:54:18;;;;;;;25.53;16.03;;;;;;;6.07;100.00;100386.42;1747035;80;21179;-78
2022/12/09 06:57:24;;;;;;;26.40;16.80;;;;;;;5.98;100.00;100373.71;1727845;81;21675;-78
2022/12/09 07:00:30;;;;;;;29.40;16.90;;;;;;;6.36;100.00;100380.91;1718461;82;21188;-78
2022/12/09 07:03:37;;;;;;;30.77;17.67;;;;;;;6.37;100.00;100374.97;1736292;81;21334;-78
2022/12/09 07:06:48;;;;;;;29.02;16.75;;;;;;;6.60;100.00;100377.68;1746005;81;21524;-79
2022/12/09 07:09:54;;;;;;;28.77;15.15;;;;;;;6.84;99.54;100379.86;1738163;81;21783;-79
2022/12/09 07:13:01;;;;;;;27.52;16.90;;;;;;;6.69;99.05;100373.22;1729434;81;21503;-79
2022/12/09 07:16:06;;;;;;;28.07;16.10;;;;;;;6.60;100.00;100368.67;1732777;81;21191;-79
2022/12/09 07:19:15;;;;;;;28.92;15.83;;;;;;;6.52;100.00;100371.27;1734090;82;21203;-79
2022/12/09 07:22:21;;;;;;;33.33;15.68;;;;;;;6.46;100.00;100363.22;1753277;80;21178;-79
2022/12/09 07:25:35;;;;;;;28.00;17.30;;;;;;;6.57;100.00;100368.96;1746920;81;21213;-78
2022/12/09 07:28:41;;;;;;;;;;;;;;;6.69;100.00;100368.28;1706931;82;21231;-76
2022/12/09 07:31:46;;;;;;;22.80;14.87;;;;;;;6.83;99.63;100375.44;1722979;83;20243;-78
2022/12/09 07:34:54;;;;;;;24.35;15.48;;;;;;;6.70;100.00;100372.20;1752286;81;21163;-78
2022/12/09 07:38:01;;;;;;;28.67;17.27;;;;;;;6.56;100.00;100369.47;1745481;80;21150;-78
2022/12/09 07:41:17;;;;;;;32.40;18.45;;;;;;;6.52;100.00;100369.91;1713173;82;21152;-78
2022/12/09 07:44:27;;;;;;;;;;;;;;;6.52;100.00;100371.27;1726805;83;21176;-78
2022/12/09 07:47:34;;;;;;;28.77;17.45;;;;;;;6.89;100.00;100365.30;1756904;80;20201;-78
2022/12/09 07:50:40;;;;;;;28.45;16.52;;;;;;;6.99;99.37;100363.04;1743650;81;21731;-75
2022/12/09 07:53:45;;;;;;;25.55;16.50;;;;;;;7.09;98.62;100360.61;1727660;83;21231;-77
2022/12/09 07:56:52;;;;;;;29.72;18.02;;;;;;;7.10;98.65;100356.02;1738636;82;21164;-76
2022/12/09 07:59:55;;;;;;;24.20;15.98;;;;;;;6.95;98.80;100354.32;1751686;81;21207;-79
2022/12/09 08:03:02;;;;;;;26.90;16.50;;;;;;;6.69;99.61;100354.70;1754474;80;21238;-79
2022/12/09 08:06:08;;;;;;;30.62;16.80;;;;;;;6.89;99.29;100352.22;1754546;80;21147;-79
2022/12/09 08:09:17;;;;;;;32.15;16.32;;;;;;;6.57;100.00;100339.92;1727535;83;21216;-78
2022/12/09 08:12:22;;;;;;;27.45;17.45;;;;;;;6.66;100.00;100337.66;1756558;81;21136;-79
2022/12/09 08:15:29;;;;;;;31.80;18.57;;;;;;;6.89;99.36;100331.31;1757621;80;21164;-79
2022/12/09 08:18:34;;;;;;;30.68;19.77;;;;;;;6.93;98.97;100332.38;1731045;83;21145;-79
2022/12/09 08:21:40;;;;;;;30.65;19.30;;;;;;;7.05;99.14;100328.42;1754091;81;21204;-79
2022/12/09 08:24:47;;;;;;;25.62;16.50;;;;;;;7.06;98.45;100326.94;1711321;83;21184;-79
2022/12/09 08:27:52;;;;;;;27.80;17.60;;;;;;;7.31;97.72;100338.91;1734180;81;21131;-79
2022/12/09 08:30:52;;;;;;;29.42;17.50;;;;;;;7.29;97.65;100330.55;1755954;80;21712;-79
2022/12/09 08:33:58;;;;;;;31.55;17.80;;;;;;;7.57;96.57;100329.96;1758619;80;21743;-79
2022/12/09 08:37:05;;;;;;;29.82;16.90;;;;;;;7.59;95.90;100319.79;1756050;80;21108;-79
2022/12/09 08:40:11;;;;;;;30.52;18.52;;;;;;;7.59;95.02;100316.55;1759783;80;21171;-79
2022/12/09 08:43:17;;;;;;;29.23;17.75;;;;;;;7.61;94.69;100313.16;1768753;80;21684;-79
2022/12/09 08:46:22;;;;;;;32.03;18.40;;;;;;;7.60;95.29;100314.17;1758461;81;21191;-78
2022/12/09 08:49:29;;;;;;;31.62;18.15;;;;;;;7.25;98.61;100302.81;1737478;81;21214;-78
2022/12/09 08:52:35;;;;;;;28.55;17.12;;;;;;;7.18;97.78;100309.36;1748282;80;21137;-76
2022/12/09 08:55:42;;;;;;;32.28;17.77;;;;;;;7.34;97.26;100299.64;1760733;80;21760;-77
2022/12/09 08:58:48;;;;;;;33.48;18.45;;;;;;;7.30;97.29;100295.55;1750935;80;21191;-79
2022/12/09 09:01:55;;;;;;;32.03;17.65;;;;;;;7.26;97.04;100293.64;1750619;80;21132;-79
2022/12/09 09:05:02;;;;;;;24.80;15.72;;;;;;;7.17;97.71;100291.84;1731019;81;21175;-79
2022/12/09 09:08:09;;;;;;;27.73;17.07;;;;;;;7.21;97.89;100287.81;1754135;81;21263;-78
2022/12/09 09:11:22;;;;;;;30.48;17.05;;;;;;;7.44;97.53;100285.47;1756433;80;21215;-77
2022/12/09 09:14:28;;;;;;;23.83;15.72;;;;;;;7.36;96.37;100285.39;1755265;81;21514;-76
2022/12/09 09:17:34;;;;;;;29.32;17.37;;;;;;;7.37;96.39;100278.93;1765461;80;21206;-76
2022/12/09 09:20:45;;;;;;;30.50;18.00;;;;;;;7.33;96.96;100274.30;1725545;83;21191;-76
2022/12/09 09:23:44;;;;;;;27.42;16.97;;;;;;;7.11;97.48;100269.35;1748698;80;21155;-76
2022/12/09 09:26:37;;;;;;;29.95;17.45;;;;;;;7.13;97.48;100270.03;1761633;80;21144;-76
2022/12/09 09:29:24;;;;;;;31.00;18.95;;;;;;;7.36;96.53;100254.95;1750736;82;21197;-76
2022/12/09 09:32:17;;;;;;;33.48;17.35;;;;;;;7.46;96.50;100263.53;1740076;81;21515;-76
2022/12/09 09:35:23;;;;;;;27.77;18.05;;;;;;;7.55;95.49;100262.59;1745894;81;21168;-76
2022/12/09 09:38:34;;;;;;;27.73;17.00;;;;;;;7.63;95.40;100258.58;1738127;82;21149;-77
2022/12/09 09:42:07;;;;;;;32.50;18.12;;;;;;;7.81;94.26;100253.95;1736186;82;21235;-78
2022/12/09 09:45:16;;;;;;;31.62;17.95;;;;;;;7.43;94.73;100253.80;1736853;81;21203;-79
2022/12/09 09:48:36;;;;;;;31.68;17.02;;;;;;;7.54;96.49;100244.05;1724444;81;21717;-77
2022/12/09 09:51:43;;;;;;;38.95;19.10;;;;;;;7.58;96.11;100243.23;1733354;82;21701;-77
2022/12/09 09:54:41;;;;;;;31.07;18.25;;;;;;;7.60;96.06;100237.95;1744569;81;21200;-77
2022/12/09 09:57:44;;;;;;;33.78;19.37;;;;;;;7.60;96.65;100238.47;1739808;81;21171;-77
2022/12/09 10:01:17;;;;;;;30.43;17.57;;;;;;;7.78;96.07;100232.47;1757154;81;21171;-77
2022/12/09 10:04:35;;;;;;;33.78;19.85;;;;;;;7.84;95.75;100225.02;1721283;83;21871;-80
2022/12/09 10:07:53;;;;;;;27.73;16.60;;;;;;;7.97;95.17;100229.19;1726050;83;21157;-79
2022/12/09 10:15:17;;;;;;;33.67;18.82;;;;;;;8.10;94.21;100233.18;1742420;81;21708;-77
2022/12/09 10:18:34;;;;;;;32.40;19.05;;;;;;;8.19;93.45;100225.39;1723519;83;21168;-79
2022/12/09 10:21:40;;;;;;;29.85;17.85;;;;;;;8.21;93.06;100234.76;1755287;81;21235;-79
2022/12/09 10:24:40;;;;;;;30.00;18.12;;;;;;;8.30;91.94;100229.69;1727289;83;21235;-77
2022/12/09 10:27:57;;;;;;;34.50;19.07;;;;;;;8.16;91.97;100220.26;1757292;81;22038;-77
2022/12/09 10:31:04;;;;;;;32.30;18.35;;;;;;;8.25;92.30;100226.61;1757230;81;21727;-77
2022/12/09 10:34:09;;;;;;;32.98;19.77;;;;;;;8.19;91.90;100221.82;1751275;80;21180;-77
2022/12/09 10:37:38;;;;;;;33.92;19.25;;;;;;;8.42;91.10;100215.28;1729850;83;21193;-79
2022/12/09 10:40:56;;;;;;;35.08;19.55;;;;;;;8.31;91.30;100212.31;1755623;81;21176;-77
2022/12/09 10:44:01;;;;;;;33.48;19.42;;;;;;;8.14;92.05;100210.05;1755414;80;21218;-79
2022/12/09 10:47:15;;;;;;;38.33;20.25;;;;;;;8.20;92.34;100212.62;1731361;82;21192;-77
2022/12/09 10:50:40;;;;;;;36.60;20.60;;;;;;;8.28;91.81;100212.66;1697743;84;21223;-79
2022/12/09 10:53:51;;;;;;;33.92;19.40;;;;;;;8.28;91.68;100211.30;1738461;81;21736;-78
2022/12/09 10:57:22;;;;;;;37.73;19.48;;;;;;;8.32;91.22;100199.54;1704435;81;21133;-76
2022/12/09 11:00:26;;;;;;;35.63;19.27;;;;;;;8.45;91.00;100205.42;1752806;80;21120;-80
2022/12/09 11:03:41;;;;;;;35.92;20.35;;;;;;;8.20;91.93;100201.72;1749898;80;21132;-76
2022/12/09 11:06:47;;;;;;;36.30;20.10;;;;;;;8.20;92.00;100202.58;1725586;83;21203;-76
2022/12/09 11:09:57;;;;;;;35.55;19.30;;;;;;;8.43;91.30;100190.60;1751710;81;21191;-80
2022/12/09 11:13:10;;;;;;;35.78;19.20;;;;;;;8.52;90.31;100196.94;1727965;82;21172;-79
2022/12/09 11:16:17;;;;;;;33.85;18.98;;;;;;;8.58;89.92;100193.54;1737587;82;21184;-80
2022/12/09 11:19:24;;;;;;;37.38;20.08;;;;;;;8.58;89.34;100191.33;1755660;81;21183;-76
2022/12/09 11:22:39;;;;;;;35.38;20.15;;;;;;;8.83;87.99;100188.98;1728871;83;21180;-76
2022/12/09 11:25:45;;;;;;;36.00;20.43;;;;;;;8.82;88.43;100198.70;1755703;81;21179;-76
2022/12/09 11:28:52;;;;;;;34.13;19.40;;;;;;;8.62;88.23;100190.83;1686260;84;21191;-76
2022/12/09 11:32:00;;;;;;;39.80;22.00;;;;;;;8.38;89.59;100179.34;1719480;81;21149;-76
2022/12/09 11:35:05;;;;;;;38.95;20.15;;;;;;;8.33;90.18;100183.05;1736589;81;21196;-80
2022/12/09 11:38:33;;;;;;;36.60;20.62;;;;;;;8.53;89.44;100183.64;1755714;80;21153;-80
2022/12/09 11:45:36;;;;;;;33.75;19.40;;;;;;;8.96;87.50;100181.16;1624944;83;21217;-76
2022/12/09 11:48:40;;;;;;;32.20;18.07;;;;;;;8.90;87.10;100176.39;1719789;82;21243;-75
2022/12/09 11:51:49;;;;;;;29.48;17.42;;;;;;;8.55;88.48;100179.37;1744456;81;21144;-80
2022/12/09 11:55:22;;;;;;;27.75;16.57;;;;;;;8.55;88.67;100182.95;1712862;81;21756;-80
2022/12/09 11:58:28;;;;;;;35.73;18.80;;;;;;;8.51;88.68;100179.36;1724781;83;21128;-79
2022/12/09 12:01:29;;;;;;;32.88;18.17;;;;;;;8.17;89.44;100172.06;1727088;83;21152;-76
2022/12/09 12:04:19;;;;;;;32.38;19.20;;;;;;;8.06;91.21;100174.59;1736058;82;21224;-79
2022/12/09 12:07:22;;;;;;;30.72;16.02;;;;;;;8.45;90.59;100166.74;1756890;81;21199;-79
2022/12/09 12:10:38;;;;;;;31.17;17.75;;;;;;;8.69;88.61;100170.03;1729928;82;21207;-76
2022/12/09 12:13:48;;;;;;;37.38;19.27;;;;;;;8.72;87.84;100168.86;1755852;81;21183;-76
2022/12/09 12:17:08;;;;;;;;;;;;;;;8.74;87.09;100166.80;1755754;82;21179;-79
2022/12/09 12:20:17;;;;;;;36.03;20.10;;;;;;;8.69;87.40;100167.82;1730586;83;20201;-80
2022/12/09 12:23:51;;;;;;;35.03;19.37;;;;;;;8.55;87.39;100168.47;1753445;80;21144;-80
2022/12/09 12:27:23;;;;;;;33.63;18.00;;;;;;;8.37;88.76;100165.86;1722758;83;21511;-76
2022/12/09 12:30:39;;;;;;;34.35;18.95;;;;;;;8.40;88.83;100162.30;1732713;81;21160;-76
2022/12/09 12:34:20;;;;;;;37.28;20.23;;;;;;;8.77;87.49;100166.48;1688193;83;21192;-79
2022/12/09 12:37:33;;;;;;;38.88;19.57;;;;;;;8.72;86.98;100159.83;1731364;81;21131;-76
2022/12/09 12:41:08;;;;;;;36.17;19.67;;;;;;;8.78;86.53;100155.91;1719328;82;21173;-80
2022/12/09 12:48:05;;;;;;;37.85;19.42;;;;;;;8.79;86.31;100156.75;1740706;81;21207;-76
2022/12/09 12:51:17;;;;;;;38.60;20.25;;;;;;;8.83;85.83;100148.07;1755410;81;21175;-80
2022/12/09 12:54:49;;;;;;;38.13;20.45;;;;;;;8.71;86.44;100153.53;1755911;81;21220;-76
2022/12/09 12:58:06;;;;;;;35.92;19.95;;;;;;;9.11;84.86;100153.20;1734606;82;21128;-77
2022/12/09 13:01:31;;;;;;;42.95;22.17;;;;;;;9.00;85.13;100147.58;1730397;83;21165;-76
2022/12/09 13:04:47;;;;;;;39.63;20.77;;;;;;;9.15;84.25;100147.75;1756696;81;21748;-80
2022/12/09 13:08:06;;;;;;;46.77;21.90;;;;;;;9.03;84.73;100147.73;1707852;81;21171;-76
2022/12/09 13:11:52;;;;;;;39.48;22.22;;;;;;;8.85;85.38;100143.31;1720758;83;21161;-76
2022/12/09 13:15:01;;;;;;;35.23;20.10;;;;;;;9.10;84.39;100142.80;1724758;83;21211;-76
2022/12/09 13:18:17;;;;;;;40.67;20.95;;;;;;;8.93;84.47;100142.45;1736024;82;21168;-76
2022/12/09 13:21:21;;;;;;;40.12;20.92;;;;;;;8.76;85.00;100146.20;1735714;82;21227;-76
2022/12/09 13:25:13;;;;;;;41.23;20.82;;;;;;;8.89;84.87;100135.14;1755079;81;21235;-80
2022/12/09 13:28:29;;;;;;;44.00;21.23;;;;;;;8.95;84.20;100128.14;1724410;83;21210;-80
2022/12/09 13:31:39;;;;;;;44.18;22.25;;;;;;;8.22;86.45;100128.83;1722650;82;21159;-75
2022/12/09 13:34:48;;;;;;;40.52;21.10;;;;;;;8.38;87.08;100123.47;1729892;83;21224;-80
2022/12/09 13:37:59;;;;;;;40.67;22.02;;;;;;;8.91;84.49;100123.53;1756936;81;21168;-79
2022/12/09 13:41:05;;;;;;;34.05;19.20;;;;;;;8.91;84.35;100121.32;1755099;82;21150;-80
2022/12/09 13:44:20;;;;;;;40.05;20.43;;;;;;;8.58;84.80;100123.17;1730174;83;21777;-76
2022/12/09 13:47:39;;;;;;;42.13;20.10;;;;;;;8.52;85.92;100127.94;1757190;81;21160;-79
2022/12/09 13:50:58;;;;;;;39.00;21.12;;;;;;;8.51;85.86;100130.30;1700811;82;21171;-79
2022/12/09 13:54:08;;;;;;;39.58;21.75;;;;;;;8.32;86.24;100123.23;1730469;83;21212;-79
2022/12/09 13:57:18;;;;;;;35.70;20.32;;;;;;;8.38;85.97;100128.92;1757405;81;21152;-78
2022/12/09 14:00:25;;;;;;;41.23;21.15;;;;;;;8.53;85.33;100121.45;1757301;81;21215;-79
2022/12/09 14:03:36;;;;;;;38.17;21.37;;;;;;;8.52;85.28;100126.58;1757340;81;21132;-76
2022/12/09 14:07:01;;;;;;;49.20;23.67;;;;;;;8.86;83.90;100123.20;1707102;84;21172;-77
2022/12/09 14:10:07;;;;;;;45.15;24.00;;;;;;;8.75;83.88;100109.91;1736346;82;21184;-76
2022/12/09 14:13:30;;;;;;;44.08;22.60;;;;;;;8.85;83.71;100122.02;1757355;81;21505;-78
2022/12/09 14:16:39;;;;;;;38.10;21.60;;;;;;;8.83;83.39;100122.16;1730764;83;21167;-76
2022/12/09 14:19:58;;;;;;;44.83;22.20;;;;;;;8.81;83.70;100113.30;1757471;81;21183;-78
2022/12/09 14:23:15;;;;;;;43.78;21.57;;;;;;;8.95;83.19;100104.45;1757219;81;21187;-77
2022/12/09 14:26:21;;;;;;;37.67;21.10;;;;;;;8.78;83.58;100107.33;1756276;81;21199;-77
2022/12/09 14:29:55;;;;;;;38.60;21.62;;;;;;;8.96;82.96;100097.95;1692900;84;21195;-77
2022/12/09 14:33:01;;;;;;;41.37;22.42;;;;;;;8.83;83.02;100100.34;1736430;82;21244;-77
2022/12/09 14:36:26;;;;;;;40.88;20.60;;;;;;;9.00;82.39;100089.44;1777989;80;21160;-78
2022/12/09 14:39:37;;;;;;;44.67;23.00;;;;;;;8.93;82.96;100090.63;1735045;82;21681;-76